Time;durP1;ratioP1;P1;durP2;ratioP2;P2;SDS_P1;SDS_P2;PMS_P1;PMS_P2;Temp;Humidity;BMP_temperature;BMP_pressure;BME280_temperature;BME280_humidity;BME280_pressure;Samples;Min_cycle;Max_cycle;Signal;HPM_P1;HPM_P2
2022/10/13 00:00:04;;;;;;;17.97;9.33;;;17.50;68.20;;;;;;5015534;28;20208;-91
2022/10/13 00:02:36;;;;;;;14.90;8.17;;;17.50;68.10;;;;;;5012545;28;20277;-90
2022/10/13 00:05:09;;;;;;;14.23;8.13;;;17.50;68.30;;;;;;5015609;28;20310;-89
2022/10/13 00:07:37;;;;;;;18.00;7.87;;;17.50;68.70;;;;;;5079779;28;20225;-91
2022/10/13 00:10:05;;;;;;;14.67;7.73;;;17.50;68.40;;;;;;5075560;28;20206;-90
2022/10/13 00:12:35;;;;;;;10.97;7.23;;;17.50;68.50;;;;;;5013669;28;20208;-90
2022/10/13 00:15:04;;;;;;;9.53;7.03;;;17.50;68.70;;;;;;5014392;28;20210;-90
2022/10/13 00:17:37;;;;;;;14.30;7.70;;;17.50;68.80;;;;;;5013962;28;20258;-91
2022/10/13 00:20:05;;;;;;;12.90;7.83;;;17.50;69.20;;;;;;5016679;28;20261;-91
2022/10/13 00:22:34;;;;;;;12.13;7.50;;;17.50;69.10;;;;;;5017671;28;20532;-91
2022/10/13 00:25:03;;;;;;;13.83;8.27;;;17.50;69.30;;;;;;5013489;28;20295;-90
2022/10/13 00:27:30;;;;;;;13.93;7.63;;;17.50;69.40;;;;;;5009598;28;20269;-92
2022/10/13 00:29:57;;;;;;;13.53;7.60;;;17.40;69.30;;;;;;5013242;28;20218;-90
2022/10/13 00:32:25;;;;;;;26.80;11.43;;;17.50;69.70;;;;;;5014977;28;20222;-90
2022/10/13 00:34:58;;;;;;;13.40;6.60;;;17.50;70.50;;;;;;5013508;28;20760;-89
2022/10/13 00:37:26;;;;;;;13.20;7.67;;;17.40;70.30;;;;;;5013329;28;20225;-92
2022/10/13 00:39:53;;;;;;;16.70;8.60;;;17.50;70.00;;;;;;5013290;28;20197;-90
2022/10/13 00:42:22;;;;;;;12.70;7.13;;;17.50;70.20;;;;;;5015661;28;20274;-91
2022/10/13 00:45:00;;;;;;;14.13;7.47;;;17.50;70.30;;;;;;5020598;28;20199;-92
2022/10/13 00:47:41;;;;;;;16.93;8.53;;;17.50;71.50;;;;;;5024896;28;20232;-91
2022/10/13 00:50:17;;;;;;;17.63;8.93;;;17.50;71.00;;;;;;5024613;28;20207;-91
2022/10/13 00:53:19;;;;;;;15.17;7.97;;;17.50;71.50;;;;;;5020791;28;20300;-91
2022/10/13 00:55:52;;;;;;;16.60;8.57;;;17.50;71.80;;;;;;5013305;28;20252;-91
2022/10/13 00:58:25;;;;;;;19.27;7.47;;;17.50;72.20;;;;;;5017098;28;20257;-91
2022/10/13 01:00:53;;;;;;;15.77;7.23;;;17.50;71.80;;;;;;5026378;28;20325;-92
2022/10/13 01:03:22;;;;;;;15.87;6.97;;;17.50;71.40;;;;;;5020684;28;20262;-93
2022/10/13 01:06:03;;;;;;;14.67;7.10;;;17.60;71.80;;;;;;5022943;28;20207;-92
2022/10/13 01:08:33;;;;;;;13.53;7.40;;;17.60;72.70;;;;;;5021541;28;20205;-91
2022/10/13 01:11:18;;;;;;;11.80;6.70;;;17.60;72.00;;;;;;5022168;28;20530;-92
2022/10/13 01:13:54;;;;;;;14.20;7.43;;;17.60;72.70;;;;;;5022747;28;20205;-92
2022/10/13 01:16:31;;;;;;;19.03;7.73;;;17.60;72.50;;;;;;5026159;28;20356;-92
2022/10/13 01:19:15;;;;;;;17.87;7.90;;;17.60;72.30;;;;;;5012940;28;20273;-93
2022/10/13 01:22:01;;;;;;;16.60;7.77;;;17.70;72.90;;;;;;5017193;28;20211;-92
2022/10/13 01:24:47;;;;;;;18.07;8.93;;;17.70;73.10;;;;;;5014613;28;20612;-93
2022/10/13 01:28:03;;;;;;;15.30;6.97;;;17.70;73.00;;;;;;5011785;28;20265;-93
2022/10/13 01:30:37;;;;;;;16.40;7.03;;;17.70;73.30;;;;;;4972835;28;20229;-93
2022/10/13 01:33:25;;;;;;;13.40;6.90;;;17.70;72.90;;;;;;5007191;28;20280;-92
2022/10/13 01:36:05;;;;;;;15.77;7.83;;;17.70;73.50;;;;;;5012670;28;20197;-92
2022/10/13 01:38:39;;;;;;;14.53;7.27;;;17.70;73.00;;;;;;5012021;28;20232;-92
2022/10/13 01:41:14;;;;;;;10.37;6.17;;;17.70;72.90;;;;;;5017321;28;20205;-92
2022/10/13 01:43:49;;;;;;;8.03;5.63;;;17.70;73.10;;;;;;5019524;28;20205;-92
2022/10/13 01:46:24;;;;;;;12.23;6.50;;;17.70;73.20;;;;;;5019723;28;20231;-92
2022/10/13 01:48:58;;;;;;;18.40;8.20;;;17.80;73.30;;;;;;5002429;28;20212;-89
2022/10/13 01:51:29;;;;;;;15.37;6.70;;;17.80;73.20;;;;;;5017520;28;20213;-92
2022/10/13 01:53:57;;;;;;;20.23;8.67;;;17.80;73.20;;;;;;5004686;28;20221;-90
2022/10/13 01:56:27;;;;;;;13.67;6.03;;;17.80;72.80;;;;;;5020869;28;20209;-91
2022/10/13 01:59:06;;;;;;;19.43;8.57;;;17.80;73.10;;;;;;5018443;28;20197;-93
2022/10/13 02:01:58;;;;;;;12.80;6.87;;;17.80;73.60;;;;;;5006829;28;20233;-92
2022/10/13 02:04:37;;;;;;;10.47;5.83;;;17.80;74.80;;;;;;5019317;28;20203;-92
2022/10/13 02:07:18;;;;;;;14.27;6.37;;;17.80;73.40;;;;;;5018872;28;20205;-92
2022/10/13 02:09:54;;;;;;;12.13;6.30;;;17.80;73.80;;;;;;5014078;28;20216;-93
2022/10/13 02:12:30;;;;;;;12.50;6.13;;;17.80;73.40;;;;;;5026606;28;20202;-93
2022/10/13 02:15:01;;;;;;;21.93;7.63;;;17.80;73.80;;;;;;4995522;28;20252;-92
2022/10/13 02:17:31;;;;;;;10.80;5.90;;;17.80;73.50;;;;;;5011688;28;20244;-91
2022/10/13 02:19:59;;;;;;;14.00;6.27;;;17.80;74.00;;;;;;5014072;28;20229;-91
2022/10/13 02:22:32;;;;;;;11.67;6.73;;;17.80;73.70;;;;;;4997269;28;20205;-90
2022/10/13 02:25:03;;;;;;;15.20;7.03;;;17.80;74.40;;;;;;4996997;28;20199;-90
2022/10/13 02:27:34;;;;;;;14.60;7.23;;;17.80;74.60;;;;;;5016241;28;20209;-89
2022/10/13 02:30:06;;;;;;;10.70;6.13;;;17.80;74.60;;;;;;5021585;28;20232;-89
2022/10/13 02:32:37;;;;;;;17.90;6.87;;;17.80;75.00;;;;;;5015211;28;20212;-88
2022/10/13 02:35:07;;;;;;;10.13;5.70;;;17.80;75.00;;;;;;5016584;28;20201;-91
2022/10/13 02:37:34;;;;;;;12.27;6.17;;;17.80;75.50;;;;;;5017209;28;20229;-92
2022/10/13 02:40:01;;;;;;;17.17;7.47;;;17.70;75.10;;;;;;5015401;28;20688;-92
2022/10/13 02:42:30;;;;;;;15.37;7.57;;;17.80;75.20;;;;;;5001647;28;20592;-92
2022/10/13 02:44:58;;;;;;;12.93;7.47;;;17.80;75.60;;;;;;5012534;28;20212;-93
2022/10/13 02:47:26;;;;;;;11.83;6.60;;;17.80;75.70;;;;;;5018375;28;20198;-91
2022/10/13 02:49:56;;;;;;;19.17;8.30;;;17.70;76.50;;;;;;5015079;28;20205;-92
2022/10/13 02:52:28;;;;;;;19.97;8.17;;;17.70;76.00;;;;;;5010794;28;20265;-92
2022/10/13 02:54:57;;;;;;;17.77;6.13;;;17.70;76.10;;;;;;4997905;28;20244;-91
2022/10/13 02:57:24;;;;;;;20.20;8.83;;;17.70;75.60;;;;;;5008696;28;20263;-92
2022/10/13 02:59:51;;;;;;;15.80;8.63;;;17.70;75.60;;;;;;5010074;28;20243;-88
2022/10/13 03:02:20;;;;;;;13.90;7.20;;;17.70;75.90;;;;;;5010847;28;20207;-89
2022/10/13 03:04:48;;;;;;;13.13;6.70;;;17.70;76.40;;;;;;5010196;28;20679;-92
2022/10/13 03:07:17;;;;;;;11.17;6.40;;;17.60;76.30;;;;;;5005749;28;20203;-92
2022/10/13 03:09:46;;;;;;;13.93;7.67;;;17.60;76.50;;;;;;5009451;28;20208;-92
2022/10/13 03:12:16;;;;;;;18.27;8.60;;;17.60;77.60;;;;;;5004551;28;20205;-92
2022/10/13 03:14:46;;;;;;;14.83;6.60;;;17.60;77.20;;;;;;5010347;28;20237;-90
2022/10/13 03:17:15;;;;;;;16.43;8.80;;;17.60;77.20;;;;;;5008150;28;20736;-91
2022/10/13 03:19:44;;;;;;;11.50;6.60;;;17.60;77.10;;;;;;5004952;28;20207;-91
2022/10/13 03:22:13;;;;;;;16.73;7.03;;;17.60;77.20;;;;;;5010843;28;20289;-91
2022/10/13 03:24:51;;;;;;;12.70;7.47;;;17.60;77.10;;;;;;5003864;28;20208;-91
2022/10/13 03:27:18;;;;;;;18.13;7.83;;;17.60;78.30;;;;;;5011104;28;20350;-91
2022/10/13 03:29:45;;;;;;;14.73;7.10;;;17.60;77.30;;;;;;5009589;28;20716;-90
2022/10/13 03:32:16;;;;;;;10.80;5.87;;;17.60;77.30;;;;;;5007737;28;20230;-89
2022/10/13 03:34:43;;;;;;;12.10;6.77;;;17.60;78.70;;;;;;5009362;28;20634;-92
2022/10/13 03:37:10;;;;;;;15.13;7.17;;;17.60;77.40;;;;;;5009783;28;20300;-91
2022/10/13 03:39:38;;;;;;;19.80;9.30;;;17.60;77.40;;;;;;5013657;28;20815;-91
2022/10/13 03:42:06;;;;;;;14.33;7.30;;;17.60;78.00;;;;;;5010911;28;20209;-91
2022/10/13 03:44:33;;;;;;;11.93;6.83;;;17.60;78.00;;;;;;5012955;28;20234;-91
2022/10/13 03:47:00;;;;;;;15.87;7.33;;;17.60;77.60;;;;;;4995731;28;20956;-91
2022/10/13 03:49:28;;;;;;;15.13;6.37;;;17.60;77.60;;;;;;5012839;28;20267;-92
2022/10/13 03:51:56;;;;;;;12.83;7.20;;;17.60;77.70;;;;;;5011784;28;20228;-92
2022/10/13 03:54:23;;;;;;;15.10;7.83;;;17.60;78.00;;;;;;5011896;28;20203;-91
2022/10/13 03:56:51;;;;;;;13.70;6.37;;;17.60;77.90;;;;;;5010250;28;20341;-92
2022/10/13 03:59:22;;;;;;;12.23;6.43;;;17.60;78.00;;;;;;5011095;28;20239;-91
2022/10/13 04:01:51;;;;;;;12.10;6.97;;;17.60;78.80;;;;;;5005031;28;20196;-92
2022/10/13 04:04:19;;;;;;;15.97;7.53;;;17.60;78.60;;;;;;5006994;28;20216;-92
2022/10/13 04:06:46;;;;;;;13.73;6.27;;;17.60;78.50;;;;;;5008296;28;20284;-92
2022/10/13 04:09:13;;;;;;;13.13;6.83;;;17.60;78.00;;;;;;5007032;28;20230;-92
2022/10/13 04:11:40;;;;;;;21.13;8.57;;;17.60;78.30;;;;;;5010720;28;20202;-92
2022/10/13 04:14:07;;;;;;;9.93;6.23;;;17.60;78.40;;;;;;5016365;28;20224;-91
2022/10/13 04:16:35;;;;;;;12.30;7.00;;;17.60;78.60;;;;;;5013929;28;20241;-92
2022/10/13 04:19:08;;;;;;;12.73;6.77;;;17.50;79.20;;;;;;5012030;28;20228;-92
2022/10/13 04:21:35;;;;;;;13.77;6.83;;;17.50;79.40;;;;;;5004099;28;20241;-91
2022/10/13 04:24:03;;;;;;;13.67;6.67;;;17.50;78.90;;;;;;5009452;28;20208;-92
2022/10/13 04:26:33;;;;;;;10.40;6.00;;;17.50;79.20;;;;;;5012667;28;20296;-92
2022/10/13 04:29:02;;;;;;;13.90;6.27;;;17.50;79.60;;;;;;5000373;28;20205;-91
2022/10/13 04:31:30;;;;;;;16.50;8.37;;;17.50;79.50;;;;;;5005966;28;20213;-92
2022/10/13 04:33:59;;;;;;;12.37;6.47;;;17.50;79.40;;;;;;5001602;28;20219;-91
2022/10/13 04:36:27;;;;;;;15.77;7.27;;;17.50;79.70;;;;;;5008222;28;20277;-92
2022/10/13 04:38:54;;;;;;;14.97;6.53;;;17.50;79.80;;;;;;5010338;28;20227;-92
2022/10/13 04:41:24;;;;;;;12.90;5.97;;;17.50;79.80;;;;;;5013536;28;20736;-92
2022/10/13 04:44:01;;;;;;;18.03;7.30;;;17.50;79.80;;;;;;5013034;28;20310;-92
2022/10/13 04:46:28;;;;;;;13.90;6.30;;;17.50;80.00;;;;;;5006808;28;20260;-92
2022/10/13 04:48:55;;;;;;;9.73;6.10;;;17.50;80.00;;;;;;5016334;28;20209;-92
2022/10/13 04:51:26;;;;;;;14.40;7.23;;;17.50;79.90;;;;;;5015605;28;20201;-92
2022/10/13 04:53:56;;;;;;;12.07;7.13;;;17.50;80.80;;;;;;5009930;28;20213;-91
2022/10/13 04:56:28;;;;;;;13.70;7.50;;;17.50;80.80;;;;;;5016384;28;20204;-92
2022/10/13 04:58:55;;;;;;;12.90;7.00;;;17.40;80.00;;;;;;5001863;28;20293;-92
2022/10/13 05:01:25;;;;;;;12.87;7.00;;;17.50;79.90;;;;;;5002933;28;20220;-91
2022/10/13 05:03:53;;;;;;;11.80;6.57;;;17.40;80.50;;;;;;5005752;28;20258;-92
2022/10/13 05:06:22;;;;;;;23.70;10.23;;;17.40;80.00;;;;;;5005197;28;20254;-91
2022/10/13 05:08:55;;;;;;;15.20;7.77;;;17.40;80.50;;;;;;5008000;28;20742;-92
2022/10/13 05:11:25;;;;;;;13.17;5.77;;;17.40;80.90;;;;;;5007785;28;20228;-92
2022/10/13 05:13:53;;;;;;;11.90;6.17;;;17.40;80.50;;;;;;5008255;28;20572;-92
2022/10/13 05:16:21;;;;;;;13.30;5.90;;;17.40;80.20;;;;;;5005814;28;20883;-92
2022/10/13 05:18:49;;;;;;;15.50;8.00;;;17.40;80.50;;;;;;5008251;28;20327;-91
2022/10/13 05:21:18;;;;;;;15.67;7.40;;;17.40;80.20;;;;;;5009965;28;20637;-91
2022/10/13 05:23:46;;;;;;;14.07;7.37;;;17.40;80.40;;;;;;5007272;28;20197;-90
2022/10/13 05:26:17;;;;;;;15.37;7.33;;;17.40;80.40;;;;;;5004598;28;20261;-91
2022/10/13 05:28:45;;;;;;;13.77;6.73;;;17.40;80.50;;;;;;5006915;28;20209;-91
2022/10/13 05:31:13;;;;;;;10.27;5.97;;;17.40;80.10;;;;;;5025889;28;20201;-90
2022/10/13 05:33:41;;;;;;;16.03;7.17;;;17.40;80.10;;;;;;5020707;28;20212;-90
2022/10/13 05:36:10;;;;;;;12.30;5.70;;;17.40;80.10;;;;;;5022998;28;20215;-90
2022/10/13 05:38:41;;;;;;;8.93;5.50;;;17.40;80.10;;;;;;5021398;28;20296;-91
2022/10/13 05:41:11;;;;;;;9.80;5.33;;;17.40;80.60;;;;;;5010194;28;20205;-91
2022/10/13 05:43:42;;;;;;;15.50;7.53;;;17.30;80.50;;;;;;5004965;28;20204;-90
2022/10/13 05:46:09;;;;;;;11.53;6.10;;;17.30;80.30;;;;;;5005907;28;20265;-91
2022/10/13 05:48:41;;;;;;;12.60;6.17;;;17.40;80.00;;;;;;5008577;28;20212;-90
2022/10/13 05:51:16;;;;;;;13.13;6.27;;;17.40;80.60;;;;;;5005727;28;20549;-90
2022/10/13 05:53:48;;;;;;;11.53;7.23;;;17.30;80.50;;;;;;5006569;28;20647;-90
2022/10/13 05:56:19;;;;;;;18.53;8.63;;;17.30;80.30;;;;;;5004595;28;20273;-91
2022/10/13 05:58:51;;;;;;;16.93;8.50;;;17.30;80.40;;;;;;5005703;28;20343;-91
2022/10/13 06:01:24;;;;;;;11.53;5.90;;;17.30;80.40;;;;;;5003959;28;20258;-90
2022/10/13 06:03:53;;;;;;;9.03;5.70;;;17.30;80.50;;;;;;5006308;28;20219;-91
2022/10/13 06:06:21;;;;;;;13.63;6.87;;;17.30;80.10;;;;;;5007430;28;20211;-91
2022/10/13 06:08:50;;;;;;;13.60;6.87;;;17.30;79.90;;;;;;5009333;28;20188;-91
2022/10/13 06:11:17;;;;;;;12.77;6.73;;;17.30;80.10;;;;;;5004486;28;20209;-90
2022/10/13 06:13:44;;;;;;;15.60;7.30;;;17.30;79.80;;;;;;5006876;28;20211;-91
2022/10/13 06:16:13;;;;;;;18.43;9.60;;;17.30;79.80;;;;;;5012405;28;20233;-90
2022/10/13 06:18:40;;;;;;;17.10;9.10;;;17.30;80.20;;;;;;5004722;28;20304;-90
2022/10/13 06:21:08;;;;;;;13.57;8.53;;;17.30;79.80;;;;;;5007117;28;20209;-89
2022/10/13 06:23:35;;;;;;;18.53;8.67;;;17.30;80.00;;;;;;5005349;28;20211;-90
2022/10/13 06:26:02;;;;;;;18.63;8.50;;;17.30;80.00;;;;;;5005554;28;20316;-89
2022/10/13 06:28:29;;;;;;;15.80;8.70;;;17.30;79.80;;;;;;5000725;28;20218;-89
2022/10/13 06:30:56;;;;;;;20.17;8.77;;;17.30;80.00;;;;;;5002782;28;20648;-89
2022/10/13 06:33:26;;;;;;;18.63;9.77;;;17.20;79.90;;;;;;5008044;28;20297;-90
2022/10/13 06:35:53;;;;;;;17.67;9.77;;;17.30;80.40;;;;;;5009121;28;20212;-89
2022/10/13 06:38:21;;;;;;;19.53;11.90;;;17.20;79.80;;;;;;5006573;28;20298;-88
2022/10/13 06:40:48;;;;;;;15.73;9.97;;;17.30;79.90;;;;;;4992294;28;20756;-90
2022/10/13 06:43:15;;;;;;;19.43;10.10;;;17.20;79.70;;;;;;4986858;28;20643;-91
2022/10/13 06:45:42;;;;;;;13.27;7.93;;;17.20;79.50;;;;;;5007359;28;20216;-89
2022/10/13 06:48:09;;;;;;;29.90;13.77;;;17.20;79.40;;;;;;5001889;28;20308;-90
2022/10/13 06:50:37;;;;;;;15.70;9.37;;;17.20;79.40;;;;;;5009810;28;20656;-90
2022/10/13 06:53:04;;;;;;;13.67;8.17;;;17.20;79.50;;;;;;5006475;28;20259;-90
2022/10/13 06:55:32;;;;;;;14.30;8.57;;;17.20;79.40;;;;;;5006865;28;20235;-91
2022/10/13 06:57:59;;;;;;;20.53;10.03;;;17.10;79.30;;;;;;5012630;28;20286;-89
2022/10/13 07:00:26;;;;;;;16.97;7.40;;;17.10;79.30;;;;;;5010946;28;20193;-90
2022/10/13 07:02:53;;;;;;;15.83;8.17;;;17.10;79.30;;;;;;5020958;28;20206;-90
2022/10/13 07:05:20;;;;;;;12.37;6.50;;;17.10;79.30;;;;;;5022646;28;20219;-89
2022/10/13 07:07:52;;;;;;;13.10;7.03;;;17.10;79.20;;;;;;5005982;28;20235;-91
2022/10/13 07:10:19;;;;;;;21.57;9.30;;;17.10;79.70;;;;;;5003833;28;20566;-90
2022/10/13 07:12:46;;;;;;;12.50;7.20;;;17.10;79.40;;;;;;5004363;28;20245;-90
2022/10/13 07:15:13;;;;;;;16.27;7.80;;;17.10;79.30;;;;;;5005161;28;20231;-90
2022/10/13 07:17:40;;;;;;;16.20;7.53;;;17.10;79.40;;;;;;5005822;28;20903;-90
2022/10/13 07:20:08;;;;;;;13.63;6.80;;;17.10;79.30;;;;;;5005129;28;20237;-90
2022/10/13 07:22:35;;;;;;;14.63;7.63;;;17.10;79.50;;;;;;5006523;28;20271;-89
2022/10/13 07:25:04;;;;;;;17.50;7.07;;;17.10;79.50;;;;;;5004984;28;20682;-90
2022/10/13 07:27:32;;;;;;;12.33;7.30;;;17.10;79.80;;;;;;5008929;28;20801;-91
2022/10/13 07:29:59;;;;;;;18.83;8.70;;;17.10;79.80;;;;;;5008439;28;20290;-90
2022/10/13 07:32:26;;;;;;;12.10;6.67;;;17.00;79.60;;;;;;5007656;28;20967;-90
2022/10/13 07:34:55;;;;;;;15.70;8.63;;;17.00;79.70;;;;;;5007840;28;20690;-90
2022/10/13 07:37:23;;;;;;;10.97;7.17;;;17.10;80.40;;;;;;5005826;28;20210;-90
2022/10/13 07:39:51;;;;;;;12.80;6.97;;;17.00;80.10;;;;;;5004821;28;20915;-90
2022/10/13 07:42:20;;;;;;;19.07;8.07;;;17.10;80.20;;;;;;5003813;28;20211;-90
2022/10/13 07:44:49;;;;;;;15.43;7.40;;;17.10;80.60;;;;;;5004298;28;20290;-92
2022/10/13 07:47:16;;;;;;;14.13;7.30;;;17.10;80.50;;;;;;5004738;28;20250;-89
2022/10/13 07:49:43;;;;;;;16.23;7.90;;;17.10;80.50;;;;;;5003862;28;20218;-90
2022/10/13 07:52:10;;;;;;;20.67;10.00;;;17.10;80.60;;;;;;5004234;28;20873;-90
2022/10/13 07:54:37;;;;;;;19.73;8.67;;;17.10;80.50;;;;;;5004663;28;20237;-91
2022/10/13 07:57:05;;;;;;;18.67;9.57;;;17.10;80.70;;;;;;5004848;28;20246;-90
2022/10/13 07:59:33;;;;;;;16.80;8.90;;;17.10;80.50;;;;;;5007376;28;20241;-90
2022/10/13 08:02:01;;;;;;;17.73;8.93;;;17.20;81.00;;;;;;4989940;28;20826;-91
2022/10/13 08:04:29;;;;;;;16.47;8.23;;;17.20;80.50;;;;;;5004226;28;20239;-90
2022/10/13 08:06:57;;;;;;;17.77;7.57;;;17.20;80.70;;;;;;5005496;28;20309;-90
2022/10/13 08:09:24;;;;;;;20.83;9.30;;;17.20;80.90;;;;;;5004200;28;20215;-89
2022/10/13 08:11:52;;;;;;;16.30;8.00;;;17.20;81.20;;;;;;5003846;28;20208;-90
2022/10/13 08:14:19;;;;;;;13.73;7.73;;;17.20;81.30;;;;;;5003892;28;20280;-90
2022/10/13 08:16:49;;;;;;;15.93;7.00;;;17.20;82.10;;;;;;5004892;28;20229;-90
2022/10/13 08:19:19;;;;;;;13.10;7.17;;;17.30;82.30;;;;;;5004470;28;20227;-91
2022/10/13 08:21:46;;;;;;;15.07;8.43;;;17.30;82.20;;;;;;5004435;28;20244;-90
2022/10/13 08:24:17;;;;;;;15.40;7.00;;;17.30;81.70;;;;;;5007148;28;20211;-90
2022/10/13 08:26:46;;;;;;;14.97;6.87;;;17.40;81.40;;;;;;5007327;28;20300;-90
2022/10/13 08:29:13;;;;;;;18.53;8.73;;;17.40;81.50;;;;;;5008092;28;20213;-90
2022/10/13 08:31:40;;;;;;;23.07;8.90;;;17.40;81.40;;;;;;5006045;28;20243;-90
2022/10/13 08:34:09;;;;;;;13.73;7.27;;;17.50;81.40;;;;;;5007064;28;20252;-92
2022/10/13 08:36:36;;;;;;;20.30;9.03;;;17.50;81.20;;;;;;4991602;28;20212;-91
2022/10/13 08:39:04;;;;;;;15.03;7.60;;;17.50;81.00;;;;;;5008257;28;20334;-92
2022/10/13 08:41:33;;;;;;;13.00;8.23;;;17.50;81.00;;;;;;5007976;28;20315;-92
2022/10/13 08:44:07;;;;;;;18.50;8.37;;;17.60;81.10;;;;;;5004594;28;20821;-92
2022/10/13 08:46:44;;;;;;;14.27;7.67;;;17.70;81.40;;;;;;4988538;28;20300;-91
2022/10/13 08:49:20;;;;;;;14.50;7.60;;;17.70;81.50;;;;;;4987913;28;20246;-91
2022/10/13 08:51:50;;;;;;;14.30;7.73;;;17.70;81.30;;;;;;5007431;28;20614;-92
2022/10/13 08:54:24;;;;;;;14.10;7.97;;;17.80;80.80;;;;;;5009117;28;20546;-92
2022/10/13 08:56:51;;;;;;;11.90;7.80;;;17.90;80.50;;;;;;5010842;28;20221;-93
2022/10/13 08:59:20;;;;;;;13.93;8.33;;;17.90;80.20;;;;;;5009990;28;20229;-92
2022/10/13 09:01:52;;;;;;;12.40;7.33;;;17.90;80.00;;;;;;5008745;28;20680;-91
2022/10/13 09:04:34;;;;;;;20.03;9.17;;;17.90;80.00;;;;;;5005727;28;20716;-91
2022/10/13 09:07:07;;;;;;;16.67;7.43;;;17.90;80.20;;;;;;5001446;28;20227;-90
2022/10/13 09:09:34;;;;;;;21.43;9.47;;;17.90;79.90;;;;;;5006487;28;20309;-91
2022/10/13 09:12:01;;;;;;;13.63;7.83;;;17.90;79.60;;;;;;5014850;28;20778;-90
2022/10/13 09:14:31;;;;;;;15.63;8.60;;;17.90;79.60;;;;;;5007661;28;20230;-91
2022/10/13 09:17:15;;;;;;;13.77;7.00;;;17.90;79.80;;;;;;5016986;28;20206;-92
2022/10/13 09:19:56;;;;;;;14.73;8.07;;;17.90;80.20;;;;;;5025455;28;20235;-91
2022/10/13 09:22:27;;;;;;;9.13;6.23;;;17.90;80.10;;;;;;5030246;28;20270;-95
2022/10/13 09:25:18;;;;;;;13.00;7.53;;;17.90;80.30;;;;;;5032191;28;20218;-95
2022/10/13 09:27:48;;;;;;;19.23;9.67;;;17.90;81.30;;;;;;5004432;28;20224;-91
2022/10/13 09:30:26;;;;;;;13.47;7.87;;;17.80;81.20;;;;;;5005422;28;20202;-92
2022/10/13 09:33:07;;;;;;;12.67;7.03;;;17.80;82.00;;;;;;5007329;28;20209;-92
2022/10/13 09:35:39;;;;;;;11.50;7.37;;;17.80;82.30;;;;;;5007390;28;20203;-92
2022/10/13 09:38:14;;;;;;;12.17;7.70;;;17.70;82.10;;;;;;5001662;28;20270;-92
2022/10/13 09:41:00;;;;;;;13.20;7.03;;;17.70;82.00;;;;;;5010049;28;20260;-92
2022/10/13 09:43:31;;;;;;;17.33;8.63;;;17.70;82.20;;;;;;5009778;28;20564;-94
2022/10/13 09:46:00;;;;;;;22.00;10.23;;;17.70;83.10;;;;;;5009507;28;20220;-91
2022/10/13 09:48:30;;;;;;;14.80;8.57;;;17.70;83.20;;;;;;5007721;27;20235;-93
2022/10/13 09:50:59;;;;;;;18.37;8.57;;;17.70;83.60;;;;;;5009968;28;20271;-92
2022/10/13 09:53:31;;;;;;;21.93;10.10;;;17.70;83.90;;;;;;4995468;28;20982;-91
2022/10/13 09:56:10;;;;;;;17.70;8.03;;;17.70;84.10;;;;;;5005450;28;20209;-92
2022/10/13 09:58:42;;;;;;;16.20;8.03;;;17.70;85.00;;;;;;5007032;28;20211;-92
2022/10/13 10:01:20;;;;;;;17.07;9.33;;;17.70;84.30;;;;;;5006105;28;20245;-93
2022/10/13 10:03:49;;;;;;;13.37;7.90;;;17.70;84.60;;;;;;5001984;28;20219;-92
2022/10/13 10:06:20;;;;;;;13.83;8.33;;;17.70;83.80;;;;;;5009235;27;20205;-93
2022/10/13 10:08:55;;;;;;;13.10;8.57;;;17.80;84.10;;;;;;5007818;28;20209;-93
2022/10/13 10:11:29;;;;;;;11.47;7.83;;;17.80;84.20;;;;;;5016551;28;20196;-92
2022/10/13 10:13:57;;;;;;;15.37;7.33;;;17.70;84.10;;;;;;5018512;28;20212;-91
2022/10/13 10:16:30;;;;;;;18.53;9.33;;;17.70;83.60;;;;;;5016489;28;20224;-93
2022/10/13 10:19:04;;;;;;;11.37;7.53;;;17.70;84.20;;;;;;5013824;28;20623;-94
2022/10/13 10:21:42;;;;;;;11.90;7.27;;;17.70;84.40;;;;;;5006772;28;20326;-94
2022/10/13 10:24:25;;;;;;;14.03;7.40;;;17.70;84.90;;;;;;5010152;28;20208;-92
2022/10/13 10:26:56;;;;;;;13.70;8.57;;;17.70;85.20;;;;;;5007395;28;20213;-92
2022/10/13 10:29:35;;;;;;;14.97;8.23;;;17.70;85.10;;;;;;5010072;28;20217;-93
2022/10/13 10:32:15;;;;;;;14.43;8.77;;;17.70;85.40;;;;;;5009062;28;20663;-92
2022/10/13 10:34:53;;;;;;;19.47;10.07;;;17.70;85.40;;;;;;5008933;28;20209;-93
2022/10/13 10:37:31;;;;;;;20.27;9.23;;;17.70;86.30;;;;;;5008872;28;20877;-93
2022/10/13 10:40:08;;;;;;;16.60;9.30;;;17.70;86.30;;;;;;5005598;28;20223;-94
2022/10/13 10:43:00;;;;;;;18.40;8.97;;;17.60;86.30;;;;;;5012885;28;20692;-93
2022/10/13 10:45:31;;;;;;;20.57;10.17;;;17.70;86.80;;;;;;5001992;28;20186;-93
2022/10/13 10:48:02;;;;;;;17.93;9.00;;;17.60;86.50;;;;;;5003643;28;20198;-93
2022/10/13 10:50:35;;;;;;;12.70;7.90;;;17.60;86.90;;;;;;5001511;28;20214;-93
2022/10/13 10:53:08;;;;;;;14.13;7.90;;;17.70;87.30;;;;;;5011973;28;20423;-93
2022/10/13 10:55:47;;;;;;;13.57;7.70;;;17.60;87.70;;;;;;5022940;28;20204;-92
2022/10/13 10:58:24;;;;;;;11.13;7.73;;;17.70;88.30;;;;;;5015252;28;20217;-92
2022/10/13 11:00:59;;;;;;;17.40;9.17;;;17.70;88.10;;;;;;5009615;28;20232;-92
2022/10/13 11:03:41;;;;;;;12.27;8.60;;;17.70;88.10;;;;;;5014933;28;20208;-93
2022/10/13 11:06:26;;;;;;;18.30;9.27;;;17.70;88.90;;;;;;5012278;28;20240;-93
2022/10/13 11:08:57;;;;;;;17.00;9.80;;;17.70;89.10;;;;;;5010586;28;20212;-92
2022/10/13 11:11:37;;;;;;;16.83;9.10;;;17.70;88.70;;;;;;5014041;28;20269;-92
2022/10/13 11:14:33;;;;;;;12.37;7.70;;;17.70;89.60;;;;;;5012764;28;20246;-93
2022/10/13 11:17:27;;;;;;;14.20;8.80;;;17.70;89.50;;;;;;5010005;28;20204;-92
2022/10/13 11:19:54;;;;;;;15.53;8.30;;;17.80;89.10;;;;;;5012963;28;20258;-93
2022/10/13 11:22:28;;;;;;;13.57;8.63;;;17.80;88.10;;;;;;5011930;28;20205;-93
2022/10/13 11:25:04;;;;;;;18.50;9.77;;;17.80;88.70;;;;;;5011725;28;20208;-91
2022/10/13 11:27:44;;;;;;;13.13;8.50;;;17.80;89.00;;;;;;5009954;28;20285;-91
2022/10/13 11:30:41;;;;;;;12.73;8.07;;;17.80;89.30;;;;;;5008427;28;20213;-92
2022/10/13 11:33:32;;;;;;;17.53;9.50;;;17.80;89.40;;;;;;5012905;28;20215;-92
2022/10/13 11:36:47;;;;;;;13.83;9.43;;;17.80;89.20;;;;;;4995616;28;20333;-92
2022/10/13 11:39:40;;;;;;;20.90;10.73;;;17.90;89.10;;;;;;5008542;28;20747;-92
2022/10/13 11:42:42;;;;;;;13.73;9.60;;;17.90;89.30;;;;;;5013197;28;20226;-92
2022/10/13 11:45:23;;;;;;;11.50;7.93;;;17.90;89.00;;;;;;4996157;28;20214;-93
2022/10/13 11:48:09;;;;;;;14.27;8.80;;;17.90;88.90;;;;;;5017597;28;20279;-92
2022/10/13 11:50:47;;;;;;;13.47;8.63;;;17.90;88.90;;;;;;5006587;28;20195;-93
2022/10/13 11:53:18;;;;;;;16.13;9.53;;;17.90;88.80;;;;;;5014585;28;20214;-92
2022/10/13 11:55:50;;;;;;;15.67;9.63;;;18.00;88.50;;;;;;5011813;28;20223;-91
2022/10/13 11:58:24;;;;;;;20.27;11.33;;;18.00;88.80;;;;;;5014678;28;20278;-92
2022/10/13 12:00:57;;;;;;;18.40;10.80;;;18.00;88.90;;;;;;5002332;28;20315;-91
2022/10/13 12:03:36;;;;;;;15.37;9.63;;;18.00;88.80;;;;;;5016145;28;20198;-92
2022/10/13 12:06:22;;;;;;;18.77;10.47;;;18.00;88.40;;;;;;5008499;28;20258;-92
2022/10/13 12:08:51;;;;;;;17.00;9.97;;;18.10;88.50;;;;;;5005804;28;20205;-93
2022/10/13 12:11:25;;;;;;;17.60;11.13;;;18.10;88.40;;;;;;5007517;28;20563;-91
2022/10/13 12:13:54;;;;;;;17.10;11.03;;;18.10;88.90;;;;;;5006001;28;20296;-91
2022/10/13 12:16:22;;;;;;;14.80;9.67;;;18.10;88.50;;;;;;5010744;28;20229;-90
2022/10/13 12:18:49;;;;;;;26.57;13.73;;;18.10;88.40;;;;;;5013143;28;20251;-92
2022/10/13 12:21:20;;;;;;;23.20;11.60;;;18.10;88.40;;;;;;5008232;28;20723;-91
2022/10/13 12:23:48;;;;;;;23.87;12.83;;;18.10;88.40;;;;;;5011171;28;20220;-91
2022/10/13 12:26:16;;;;;;;19.10;10.73;;;18.20;88.10;;;;;;5009939;28;20961;-92
2022/10/13 12:28:50;;;;;;;20.17;12.17;;;18.20;88.30;;;;;;5006385;28;20212;-92
2022/10/13 12:31:21;;;;;;;22.70;13.13;;;18.20;88.60;;;;;;4998076;28;20647;-91
2022/10/13 12:33:56;;;;;;;14.70;10.93;;;18.20;88.60;;;;;;5008146;28;20776;-91
2022/10/13 12:36:29;;;;;;;20.33;11.53;;;18.20;88.80;;;;;;5007738;28;20201;-91
2022/10/13 12:39:01;;;;;;;23.97;13.13;;;18.20;88.60;;;;;;5014061;28;20356;-92
2022/10/13 12:41:34;;;;;;;16.50;10.53;;;18.20;88.30;;;;;;5028891;28;20331;-92
2022/10/13 12:44:03;;;;;;;12.93;8.97;;;18.20;88.60;;;;;;5023009;28;20189;-92
2022/10/13 12:46:42;;;;;;;17.97;11.03;;;18.20;88.00;;;;;;5018409;28;20232;-92
2022/10/13 12:49:14;;;;;;;15.33;9.97;;;18.20;88.70;;;;;;5020336;28;20201;-92
2022/10/13 12:51:44;;;;;;;15.83;9.73;;;18.20;88.40;;;;;;5017125;28;20205;-91
2022/10/13 12:54:21;;;;;;;15.90;9.57;;;18.30;88.20;;;;;;5022777;28;20208;-91
2022/10/13 12:56:54;;;;;;;16.23;10.67;;;18.30;89.50;;;;;;5018141;28;20265;-92
2022/10/13 12:59:22;;;;;;;19.23;10.47;;;18.30;88.70;;;;;;5020161;28;20208;-91